createdAt,value
2023-02-12T00:02:20.119Z,36.33
2023-02-12T00:04:50.448Z,36.97
2023-02-12T00:07:20.260Z,36.33
2023-02-12T00:09:49.269Z,36.37
2023-02-12T00:12:19.215Z,35.38
2023-02-12T00:14:48.242Z,37.50
2023-02-12T00:17:32.569Z,37.10
2023-02-12T00:20:05.919Z,36.83
2023-02-12T00:22:58.726Z,36.92
2023-02-12T00:25:30.482Z,35.28
2023-02-12T00:28:00.025Z,36.55
2023-02-12T00:30:33.824Z,35.88
2023-02-12T00:33:03.166Z,38.20
2023-02-12T00:35:33.842Z,35.25
2023-02-12T00:38:03.297Z,36.40
2023-02-12T00:40:33.142Z,35.83
2023-02-12T00:43:00.169Z,37.92
2023-02-12T00:45:31.245Z,38.42
2023-02-12T00:48:05.942Z,34.95
2023-02-12T00:50:34.694Z,33.70
2023-02-12T00:53:08.977Z,37.70
2023-02-12T00:55:39.681Z,36.13
2023-02-12T00:58:21.148Z,34.63
2023-02-12T01:00:56.320Z,36.88
2023-02-12T01:03:28.881Z,38.08
2023-02-12T01:06:00.370Z,36.40
2023-02-12T01:08:33.824Z,35.25
2023-02-12T01:11:06.377Z,36.30
2023-02-12T01:13:36.251Z,35.85
2023-02-12T01:16:14.823Z,38.08
2023-02-12T01:18:55.200Z,36.88
2023-02-12T01:21:32.871Z,36.08
2023-02-12T01:24:12.353Z,35.65
2023-02-12T01:26:40.305Z,36.30
2023-02-12T01:29:09.145Z,37.78
2023-02-12T01:34:16.380Z,37.15
2023-02-12T01:36:47.125Z,34.08
2023-02-12T01:39:26.266Z,37.15
2023-02-12T01:41:57.173Z,32.63
2023-02-12T01:44:28.382Z,32.78
2023-02-12T01:46:58.262Z,34.60
2023-02-12T01:49:55.367Z,33.07
2023-02-12T01:52:36.593Z,34.47
2023-02-12T01:55:11.009Z,34.33
2023-02-12T01:57:48.038Z,36.08
2023-02-12T02:03:00.357Z,32.92
2023-02-12T02:05:58.339Z,32.40
2023-02-12T02:08:26.888Z,30.65
2023-02-12T02:11:03.310Z,34.97
2023-02-12T02:13:48.882Z,34.00
2023-02-12T02:16:23.918Z,33.55
2023-02-12T02:19:02.345Z,33.10
2023-02-12T02:21:52.052Z,33.25
2023-02-12T02:24:35.122Z,32.70
2023-02-12T02:27:45.047Z,31.73
2023-02-12T02:30:22.749Z,35.22
2023-02-12T02:33:17.696Z,34.10
2023-02-12T02:36:11.460Z,35.92
2023-02-12T02:38:53.579Z,32.00
2023-02-12T02:41:53.728Z,31.73
2023-02-12T02:44:38.708Z,31.35
2023-02-12T02:47:11.198Z,32.53
2023-02-12T02:49:46.275Z,32.05
2023-02-12T02:52:22.639Z,32.38
2023-02-12T02:55:00.145Z,31.73
2023-02-12T02:57:32.635Z,31.52
2023-02-12T03:00:07.968Z,32.20
2023-02-12T03:02:42.704Z,31.33
2023-02-12T03:05:18.511Z,30.25
2023-02-12T03:07:53.318Z,29.92
2023-02-12T03:10:41.429Z,30.90
2023-02-12T03:13:15.618Z,32.22
2023-02-12T03:15:55.171Z,31.30
2023-02-12T03:18:27.796Z,28.75
2023-02-12T03:21:01.904Z,30.30
2023-02-12T03:23:42.203Z,31.92
2023-02-12T03:26:13.802Z,31.63
2023-02-12T03:28:43.495Z,31.98
2023-02-12T03:31:45.270Z,31.25
2023-02-12T03:34:47.095Z,30.23
2023-02-12T03:37:42.366Z,29.83
2023-02-12T03:40:26.265Z,32.00
2023-02-12T03:43:28.934Z,30.15
2023-02-12T03:46:13.514Z,33.10
2023-02-12T03:48:57.952Z,30.63
2023-02-12T03:51:35.995Z,33.72
2023-02-12T03:54:12.426Z,34.03
2023-02-12T03:56:44.354Z,32.97
2023-02-12T03:59:15.680Z,31.77
2023-02-12T04:01:57.541Z,31.83
2023-02-12T04:04:30.359Z,36.75
2023-02-12T04:07:03.447Z,33.47
2023-02-12T04:09:58.353Z,32.55
2023-02-12T04:13:03.798Z,31.98
2023-02-12T04:16:09.772Z,32.00
2023-02-12T04:18:45.071Z,31.38
2023-02-12T04:21:25.450Z,31.60
2023-02-12T04:24:12.416Z,32.90
2023-02-12T04:27:26.762Z,33.92
2023-02-12T04:30:29.728Z,33.22
2023-02-12T04:33:10.956Z,31.10
2023-02-12T04:35:44.924Z,31.95
2023-02-12T04:38:21.173Z,35.22
2023-02-12T04:40:55.070Z,34.08
2023-02-12T04:43:42.810Z,34.10
2023-02-12T04:46:36.298Z,33.83
2023-02-12T04:49:10.019Z,33.08
2023-02-12T04:51:51.707Z,34.53
2023-02-12T04:54:24.359Z,30.38
2023-02-12T04:56:58.671Z,35.45
2023-02-12T04:59:27.857Z,31.73
2023-02-12T05:01:57.537Z,33.83
2023-02-12T05:04:24.374Z,35.50
2023-02-12T05:06:50.876Z,35.85
2023-02-12T05:09:19.830Z,34.40
2023-02-12T05:11:46.505Z,35.22
2023-02-12T05:14:14.193Z,36.13
2023-02-12T05:16:40.910Z,38.17
2023-02-12T05:19:09.409Z,35.45
2023-02-12T05:21:37.045Z,34.25
2023-02-12T05:24:03.651Z,35.63
2023-02-12T05:26:30.480Z,37.67
2023-02-12T05:28:57.096Z,34.10
2023-02-12T05:31:23.639Z,34.85
2023-02-12T05:33:50.400Z,37.30
2023-02-12T05:36:19.690Z,37.20
2023-02-12T05:38:46.548Z,35.70
2023-02-12T05:41:16.042Z,37.35
2023-02-12T05:43:43.110Z,37.47
2023-02-12T05:46:10.789Z,36.03
2023-02-12T05:48:38.513Z,38.30
2023-02-12T05:51:07.395Z,35.70
2023-02-12T05:53:34.419Z,38.20
2023-02-12T05:56:11.299Z,36.10
2023-02-12T05:58:37.892Z,34.38
2023-02-12T06:01:19.497Z,36.20
2023-02-12T06:03:46.042Z,34.00
2023-02-12T06:06:12.934Z,37.13
2023-02-12T06:08:39.565Z,35.20
2023-02-12T06:11:08.229Z,36.53
2023-02-12T06:13:34.984Z,36.78
2023-02-12T06:16:01.998Z,36.60
2023-02-12T06:18:28.617Z,33.30
2023-02-12T06:20:55.226Z,37.60
2023-02-12T06:23:23.323Z,36.78
2023-02-12T06:25:51.257Z,35.28
2023-02-12T06:28:17.985Z,34.70
2023-02-12T06:30:44.568Z,35.97
2023-02-12T06:33:12.250Z,34.05
2023-02-12T06:35:39.055Z,33.63
2023-02-12T06:38:05.996Z,32.38
2023-02-12T06:40:32.950Z,32.67
2023-02-12T06:43:00.560Z,35.05
2023-02-12T06:48:18.021Z,34.97
2023-02-12T06:50:45.458Z,31.95
2023-02-12T06:53:13.748Z,32.70
2023-02-12T06:55:46.555Z,31.23
2023-02-12T06:58:16.978Z,35.33
2023-02-12T07:00:56.189Z,33.97
2023-02-12T07:03:29.563Z,34.67
2023-02-12T07:08:42.078Z,32.63
2023-02-12T07:11:20.240Z,33.03
2023-02-12T07:13:49.721Z,31.75
2023-02-12T07:16:20.911Z,32.38
2023-02-12T07:18:58.456Z,31.58
2023-02-12T07:21:27.378Z,34.00
2023-02-12T07:24:12.056Z,33.67
2023-02-12T07:26:40.466Z,33.67
2023-02-12T07:29:17.210Z,35.97
2023-02-12T07:31:48.720Z,32.67
2023-02-12T07:34:17.525Z,32.30
2023-02-12T07:36:48.017Z,34.92
2023-02-12T07:41:49.196Z,31.15
2023-02-12T07:47:11.419Z,31.98
2023-02-12T07:49:49.412Z,32.90
2023-02-12T07:52:27.559Z,32.70
2023-02-12T07:54:55.301Z,32.13
2023-02-12T07:57:25.062Z,34.28
2023-02-12T07:59:56.872Z,31.05
2023-02-12T08:02:30.909Z,32.28
2023-02-12T08:05:08.318Z,32.63
2023-02-12T08:07:36.441Z,32.25
2023-02-12T08:10:05.319Z,32.70
2023-02-12T08:12:38.915Z,32.28
2023-02-12T08:15:17.163Z,31.02
2023-02-12T08:17:56.474Z,32.72
2023-02-12T08:20:28.405Z,32.13
2023-02-12T08:22:59.120Z,29.10
2023-02-12T08:25:29.886Z,30.10
2023-02-12T08:27:58.372Z,30.92
2023-02-12T08:30:25.541Z,27.92
2023-02-12T08:32:59.620Z,30.33
2023-02-12T08:35:32.224Z,29.15
2023-02-12T08:41:36.190Z,30.10
2023-02-12T08:44:06.807Z,28.55
2023-02-12T08:46:37.945Z,30.15
2023-02-12T08:49:10.566Z,29.48
2023-02-12T08:51:43.379Z,28.88
2023-02-12T08:54:16.751Z,28.40
2023-02-12T08:56:46.799Z,28.17
2023-02-12T08:59:35.467Z,29.37
2023-02-12T09:02:04.645Z,27.35
2023-02-12T09:07:23.222Z,28.77
2023-02-12T09:09:55.973Z,27.67
2023-02-12T09:12:32.174Z,29.40
2023-02-12T09:15:00.855Z,26.27
2023-02-12T09:17:35.178Z,27.45
2023-02-12T09:20:13.737Z,26.98
2023-02-12T09:22:42.986Z,26.42
2023-02-12T09:25:15.590Z,28.45
2023-02-12T09:27:56.574Z,30.40
2023-02-12T09:30:28.810Z,28.58
2023-02-12T09:33:00.727Z,28.58
2023-02-12T09:35:33.057Z,27.35
2023-02-12T09:41:05.603Z,27.48
2023-02-12T09:43:54.317Z,26.30
2023-02-12T09:46:24.405Z,27.75
2023-02-12T09:49:21.785Z,27.77
2023-02-12T09:51:57.075Z,26.15
2023-02-12T09:57:33.686Z,27.60
2023-02-12T10:00:27.384Z,25.30
2023-02-12T10:02:55.831Z,26.05
2023-02-12T10:05:54.379Z,24.43
2023-02-12T10:08:46.534Z,24.27
2023-02-12T10:11:34.448Z,23.67
2023-02-12T10:14:48.675Z,25.85
2023-02-12T10:17:39.184Z,23.23
2023-02-12T10:20:41.658Z,22.73
2023-02-12T10:23:59.599Z,22.55
2023-02-12T10:26:33.954Z,24.10
2023-02-12T10:29:19.433Z,22.08
2023-02-12T10:38:03.425Z,24.02
2023-02-12T10:40:35.591Z,20.08
2023-02-12T10:43:12.861Z,24.65
2023-02-12T10:45:47.013Z,22.98
2023-02-12T10:48:23.144Z,22.35
2023-02-12T10:50:56.197Z,23.25
2023-02-12T10:56:12.717Z,24.20
2023-02-12T10:58:44.386Z,25.83
2023-02-12T11:01:22.653Z,23.85
2023-02-12T11:03:59.556Z,25.38
2023-02-12T11:06:31.617Z,24.13
2023-02-12T11:09:05.562Z,24.00
2023-02-12T11:11:44.217Z,24.30
2023-02-12T11:14:21.250Z,23.55
2023-02-12T11:17:08.313Z,24.00
2023-02-12T11:19:40.109Z,24.05
2023-02-12T11:22:24.181Z,24.40
2023-02-12T11:25:01.277Z,23.30
2023-02-12T11:27:33.464Z,24.13
2023-02-12T11:30:20.284Z,22.88
2023-02-12T11:32:52.828Z,23.88
2023-02-12T11:35:54.117Z,22.42
2023-02-12T11:38:28.605Z,22.98
2023-02-12T11:41:15.562Z,24.52
2023-02-12T11:46:30.710Z,22.20
2023-02-12T11:49:02.086Z,24.65
2023-02-12T11:51:32.375Z,24.10
2023-02-12T11:54:12.685Z,22.88
2023-02-12T11:57:02.871Z,24.25
2023-02-12T11:59:40.446Z,25.02
2023-02-12T12:02:25.039Z,22.60
2023-02-12T12:04:56.949Z,24.23
2023-02-12T12:07:36.295Z,26.10
2023-02-12T12:10:26.187Z,24.02
2023-02-12T12:13:00.592Z,22.40
2023-02-12T12:15:54.257Z,24.55
2023-02-12T12:19:11.748Z,25.35
2023-02-12T12:22:06.599Z,22.58
2023-02-12T12:25:01.780Z,21.98
2023-02-12T12:27:53.342Z,23.35
2023-02-12T12:30:51.220Z,26.63
2023-02-12T12:33:48.965Z,25.63
2023-02-12T12:36:43.789Z,25.35
2023-02-12T12:39:37.073Z,24.45
2023-02-12T12:42:37.799Z,23.13
2023-02-12T12:45:25.546Z,24.48
2023-02-12T12:51:15.369Z,22.65
2023-02-12T12:54:12.424Z,21.48
2023-02-12T12:57:06.853Z,23.13
2023-02-12T13:00:15.707Z,23.30
2023-02-12T13:03:11.020Z,24.55
2023-02-12T13:05:56.850Z,24.38
2023-02-12T13:08:48.370Z,22.08
2023-02-12T13:11:41.001Z,23.55
2023-02-12T13:14:35.615Z,22.13
2023-02-12T13:17:11.819Z,22.25
2023-02-12T13:20:05.948Z,20.92
2023-02-12T13:23:06.134Z,23.20
2023-02-12T13:26:16.484Z,22.33
2023-02-12T13:29:14.851Z,22.58
2023-02-12T13:31:55.833Z,19.80
2023-02-12T13:34:27.902Z,21.95
2023-02-12T13:37:03.175Z,21.40
2023-02-12T13:39:42.992Z,22.20
2023-02-12T13:42:31.161Z,22.77
2023-02-12T13:45:37.082Z,22.58
2023-02-12T13:48:37.057Z,20.23
2023-02-12T13:51:57.556Z,22.95
2023-02-12T13:54:44.883Z,22.73
2023-02-12T13:57:27.278Z,22.75
2023-02-12T14:00:01.904Z,23.50
2023-02-12T14:05:32.644Z,22.52
2023-02-12T14:08:06.260Z,23.10
2023-02-12T14:10:46.386Z,23.67
2023-02-12T14:13:44.063Z,23.70
2023-02-12T14:16:53.639Z,22.50
2023-02-12T14:19:53.740Z,22.35
2023-02-12T14:22:37.700Z,23.70
2023-02-12T14:25:33.166Z,22.05
2023-02-12T14:29:03.474Z,22.13
2023-02-12T14:31:45.049Z,21.45
2023-02-12T14:34:16.736Z,22.05
2023-02-12T14:36:53.955Z,21.73
2023-02-12T14:39:29.727Z,21.48
2023-02-12T14:42:17.709Z,22.05
2023-02-12T14:44:58.629Z,20.75
2023-02-12T14:47:32.027Z,20.67
2023-02-12T14:50:07.715Z,19.63
2023-02-12T14:52:45.797Z,20.45
2023-02-12T14:55:45.472Z,20.35
2023-02-12T14:58:30.782Z,20.35
2023-02-12T15:01:02.520Z,20.23
2023-02-12T15:03:43.369Z,22.52
2023-02-12T15:06:28.017Z,21.55
2023-02-12T15:09:23.182Z,18.83
2023-02-12T15:12:03.156Z,20.27
2023-02-12T15:14:36.394Z,20.73
2023-02-12T15:20:40.271Z,19.38
2023-02-12T15:23:47.402Z,20.80
2023-02-12T15:26:25.230Z,20.23
2023-02-12T15:28:55.573Z,22.48
2023-02-12T15:31:34.495Z,20.42
2023-02-12T15:34:07.095Z,19.45
2023-02-12T15:36:35.124Z,20.17
2023-02-12T15:39:09.912Z,19.58
2023-02-12T15:41:40.940Z,19.13
2023-02-12T15:44:26.129Z,18.58
2023-02-12T15:47:26.758Z,19.25
2023-02-12T15:50:01.754Z,19.20
2023-02-12T15:52:38.021Z,20.75
2023-02-12T15:55:19.808Z,19.67
2023-02-12T15:58:19.888Z,18.42
2023-02-12T16:00:49.608Z,19.13
2023-02-12T16:03:32.209Z,21.17
2023-02-12T16:06:14.487Z,18.88
2023-02-12T16:08:50.103Z,19.58
2023-02-12T16:11:24.263Z,20.38
2023-02-12T16:14:03.838Z,20.85
2023-02-12T16:16:49.294Z,20.47
2023-02-12T16:19:20.834Z,21.33
2023-02-12T16:24:40.777Z,20.63
2023-02-12T16:27:23.860Z,22.20
2023-02-12T16:30:01.681Z,21.33
2023-02-12T16:32:49.055Z,21.63
2023-02-12T16:35:29.467Z,21.00
2023-02-12T16:38:34.641Z,20.75
2023-02-12T16:41:33.146Z,21.63
2023-02-12T16:44:07.549Z,21.88
2023-02-12T16:46:55.135Z,20.45
2023-02-12T16:49:24.525Z,23.20
2023-02-12T16:51:52.192Z,22.58
2023-02-12T16:54:37.556Z,23.65
2023-02-12T16:57:05.280Z,21.77
2023-02-12T16:59:35.785Z,22.20
2023-02-12T17:02:07.062Z,23.58
2023-02-12T17:10:25.527Z,22.10
2023-02-12T17:12:58.763Z,24.27
2023-02-12T17:15:33.552Z,23.42
2023-02-12T17:18:01.141Z,22.15
2023-02-12T17:20:31.010Z,26.13
2023-02-12T17:23:03.428Z,22.75
2023-02-12T17:25:43.279Z,22.55
2023-02-12T17:28:10.771Z,23.90
2023-02-12T17:30:40.529Z,24.83
2023-02-12T17:33:31.594Z,23.63
2023-02-12T17:36:04.657Z,22.23
2023-02-12T17:38:36.291Z,22.38
2023-02-12T17:41:10.851Z,23.70
2023-02-12T17:43:52.965Z,26.02
2023-02-12T17:46:28.972Z,25.38
2023-02-12T17:49:06.038Z,24.55
2023-02-12T17:54:12.191Z,23.13
2023-02-12T17:56:41.046Z,25.02
2023-02-12T17:59:15.138Z,24.00
2023-02-12T18:01:43.216Z,24.95
2023-02-12T18:04:12.742Z,25.83
2023-02-12T18:06:44.841Z,25.80
2023-02-12T18:09:28.530Z,25.02
2023-02-12T18:11:59.916Z,25.92
2023-02-12T18:14:28.604Z,25.92
2023-02-12T18:16:56.522Z,23.77
2023-02-12T18:19:29.163Z,26.25
2023-02-12T18:21:59.214Z,27.77
2023-02-12T18:24:27.805Z,27.35
2023-02-12T18:26:55.549Z,26.60
2023-02-12T18:29:23.752Z,28.77
2023-02-12T18:32:23.528Z,27.42
2023-02-12T18:35:05.068Z,26.92
2023-02-12T18:37:42.279Z,27.10
2023-02-12T18:40:13.847Z,28.27
2023-02-12T18:45:27.450Z,26.00
2023-02-12T18:48:03.375Z,28.42
2023-02-12T18:50:34.813Z,26.92
2023-02-12T18:53:04.388Z,27.20
2023-02-12T18:55:44.623Z,27.05
2023-02-12T18:58:24.704Z,28.80
2023-02-12T19:00:55.950Z,27.02
2023-02-12T19:03:29.019Z,27.75
2023-02-12T19:06:05.278Z,26.63
2023-02-12T19:08:31.846Z,28.10
2023-02-12T19:11:01.238Z,27.48
2023-02-12T19:13:31.498Z,26.98
2023-02-12T19:16:01.859Z,27.00
2023-02-12T19:21:30.245Z,25.90
2023-02-12T19:24:02.455Z,27.33
2023-02-12T19:26:36.465Z,30.80
2023-02-12T19:29:13.500Z,29.60
2023-02-12T19:31:44.298Z,26.65
2023-02-12T19:37:26.888Z,28.38
2023-02-12T19:42:21.174Z,27.58
2023-02-12T19:44:52.643Z,27.02
2023-02-12T19:47:33.658Z,26.90
2023-02-12T19:50:05.464Z,25.52
2023-02-12T19:52:38.254Z,26.95
2023-02-12T19:55:14.265Z,25.85
2023-02-12T19:57:41.855Z,26.63
2023-02-12T20:00:13.033Z,24.50
2023-02-12T20:02:58.681Z,25.10
2023-02-12T20:05:27.501Z,25.35
2023-02-12T20:07:56.198Z,26.63
2023-02-12T20:10:27.461Z,26.27
2023-02-12T20:12:55.153Z,24.23
2023-02-12T20:15:25.800Z,25.33
2023-02-12T20:18:24.753Z,25.35
2023-02-12T20:20:53.479Z,23.52
2023-02-12T20:23:21.757Z,22.67
2023-02-12T20:25:50.762Z,24.42
2023-02-12T20:28:26.871Z,24.73
2023-02-12T20:31:00.575Z,25.10
2023-02-12T20:33:29.570Z,23.73
2023-02-12T20:35:59.985Z,25.20
2023-02-12T20:38:37.668Z,25.58
2023-02-12T20:41:15.429Z,24.40
2023-02-12T20:43:43.365Z,25.23
2023-02-12T20:46:25.751Z,22.90
2023-02-12T20:48:57.743Z,23.95
2023-02-12T20:51:29.524Z,23.70
2023-02-12T20:53:57.715Z,23.48
2023-02-12T20:56:29.280Z,23.73
2023-02-12T20:59:00.498Z,23.38
2023-02-12T21:01:39.205Z,23.70
2023-02-12T21:04:14.746Z,22.80
2023-02-12T21:06:42.434Z,23.02
2023-02-12T21:09:11.586Z,23.08
2023-02-12T21:11:43.865Z,23.40
2023-02-12T21:14:23.514Z,23.33
2023-02-12T21:16:55.644Z,21.35
2023-02-12T21:19:23.955Z,24.10
2023-02-12T21:21:54.473Z,23.13
2023-02-12T21:24:26.041Z,24.95
2023-02-12T21:26:58.620Z,23.83
2023-02-12T21:29:31.071Z,22.38
2023-02-12T21:32:02.180Z,21.70
2023-02-12T21:34:31.997Z,21.52
2023-02-12T21:36:58.849Z,20.50
2023-02-12T21:39:28.539Z,19.70
2023-02-12T21:44:51.906Z,18.90
2023-02-12T21:47:27.158Z,18.88
2023-02-12T21:49:55.748Z,20.13
2023-02-12T21:52:23.898Z,19.75
2023-02-12T21:54:53.571Z,20.27
2023-02-12T21:57:22.088Z,19.00
2023-02-12T21:59:53.129Z,20.45
2023-02-12T22:02:25.253Z,18.92
2023-02-12T22:05:00.201Z,19.13
2023-02-12T22:07:27.981Z,20.50
2023-02-12T22:09:57.082Z,18.85
2023-02-12T22:12:26.104Z,19.23
2023-02-12T22:14:56.039Z,18.77
2023-02-12T22:17:25.811Z,18.35
2023-02-12T22:20:04.193Z,19.52
2023-02-12T22:22:34.986Z,20.55
2023-02-12T22:25:06.215Z,19.17
2023-02-12T22:27:38.280Z,20.60
2023-02-12T22:30:08.033Z,18.73
2023-02-12T22:32:37.276Z,19.63
2023-02-12T22:35:04.641Z,19.00
2023-02-12T22:37:33.668Z,18.15
2023-02-12T22:40:01.134Z,17.90
2023-02-12T22:42:29.444Z,17.35
2023-02-12T22:45:08.883Z,17.33
2023-02-12T22:47:37.117Z,19.10
2023-02-12T22:50:07.379Z,18.88
2023-02-12T22:52:35.272Z,17.20
2023-02-12T22:57:45.009Z,17.67
2023-02-12T23:00:16.697Z,16.92
2023-02-12T23:02:45.790Z,16.73
2023-02-12T23:05:14.179Z,19.23
2023-02-12T23:07:43.044Z,17.50
2023-02-12T23:10:13.882Z,19.20
2023-02-12T23:12:55.306Z,19.00
2023-02-12T23:15:22.369Z,20.90
2023-02-12T23:17:54.317Z,18.58
2023-02-12T23:20:34.921Z,19.08
2023-02-12T23:23:06.008Z,17.70
2023-02-12T23:25:37.286Z,19.25
2023-02-12T23:30:55.877Z,18.73
2023-02-12T23:33:24.601Z,20.55
2023-02-12T23:35:53.243Z,19.40
2023-02-12T23:38:22.810Z,18.20
2023-02-12T23:40:55.790Z,18.67
2023-02-12T23:43:25.059Z,18.25
2023-02-12T23:45:54.039Z,18.17
2023-02-12T23:48:20.549Z,18.00
2023-02-12T23:50:51.125Z,18.55
2023-02-12T23:53:20.145Z,17.77
2023-02-12T23:55:50.245Z,17.67
2023-02-12T23:58:18.734Z,17.25
